Time;durP1;ratioP1;P1;durP2;ratioP2;P2;SDS_P1;SDS_P2;PMS_P1;PMS_P2;Temp;Humidity;BMP_temperature;BMP_pressure;BME280_temperature;BME280_humidity;BME280_pressure;Samples;Min_cycle;Max_cycle;Signal;HPM_P1;HPM_P2
2023/05/28 00:02:37;;;;;;;9.88;3.35;;;;;;;9.71;88.30;97414.19;5002092;28;20104;-63
2023/05/28 00:05:05;;;;;;;8.55;3.53;;;;;;;9.87;87.39;97415.25;5000389;28;20038;-62
2023/05/28 00:07:31;;;;;;;8.60;3.78;;;;;;;9.75;88.13;97416.16;5002444;28;20057;-62
2023/05/28 00:09:58;;;;;;;9.57;3.30;;;;;;;9.65;88.22;97412.47;4998287;28;20041;-63
2023/05/28 00:12:25;;;;;;;10.20;3.72;;;;;;;9.58;88.92;97407.22;4997198;28;20057;-62
2023/05/28 00:14:52;;;;;;;10.82;3.60;;;;;;;9.56;89.23;97403.94;5002796;28;20057;-62
2023/05/28 00:17:19;;;;;;;10.73;3.55;;;;;;;9.43;89.91;97414.00;5002926;28;20038;-63
2023/05/28 00:19:45;;;;;;;7.28;3.15;;;;;;;9.39;90.32;97409.34;5002290;28;20653;-62
2023/05/28 00:22:12;;;;;;;10.23;3.53;;;;;;;9.45;89.93;97403.78;5001195;28;20037;-62
2023/05/28 00:24:39;;;;;;;10.45;3.13;;;;;;;9.58;88.50;97407.22;5003047;28;20053;-62
2023/05/28 00:27:08;;;;;;;7.75;3.28;;;;;;;9.53;89.41;97405.25;5001658;28;20041;-62
2023/05/28 00:29:34;;;;;;;9.73;3.45;;;;;;;9.60;88.49;97399.69;4998334;28;20417;-62
2023/05/28 00:32:01;;;;;;;9.55;4.38;;;;;;;9.48;89.40;97397.84;5001620;28;20045;-62
2023/05/28 00:34:28;;;;;;;9.98;3.63;;;;;;;9.39;89.83;97398.53;5001201;28;20046;-62
2023/05/28 00:36:55;;;;;;;8.27;4.13;;;;;;;9.35;90.23;97390.06;4996385;28;20049;-63
2023/05/28 00:39:22;;;;;;;11.07;4.50;;;;;;;9.40;89.65;97392.06;4999661;28;20129;-62
2023/05/28 00:42:00;;;;;;;9.07;3.88;;;;;;;9.43;89.75;97395.06;5001740;28;20068;-62
2023/05/28 00:44:27;;;;;;;10.13;4.00;;;;;;;9.22;90.63;97391.22;4999600;28;20053;-62
2023/05/28 00:46:55;;;;;;;9.30;4.28;;;;;;;9.30;90.73;97393.50;4993830;28;20044;-62
2023/05/28 00:49:23;;;;;;;10.13;4.93;;;;;;;9.19;91.29;97395.22;4999841;28;20512;-62
2023/05/28 00:51:49;;;;;;;8.98;4.85;;;;;;;9.16;91.33;97390.28;4995342;28;20564;-63
2023/05/28 00:54:16;;;;;;;7.68;4.35;;;;;;;9.29;90.34;97391.84;4998290;28;20048;-63
2023/05/28 00:56:43;;;;;;;9.77;4.75;;;;;;;9.29;90.06;97391.06;4996693;28;20044;-63
2023/05/28 00:59:12;;;;;;;9.85;4.07;;;;;;;9.36;90.22;97389.81;5000423;28;20543;-62
2023/05/28 01:01:39;;;;;;;8.55;4.43;;;;;;;9.43;89.25;97392.38;4995869;28;20687;-62
2023/05/28 01:04:06;;;;;;;10.55;4.70;;;;;;;9.48;88.81;97389.75;5002726;28;20041;-62
2023/05/28 01:06:33;;;;;;;11.75;4.57;;;;;;;9.48;88.51;97392.44;4999653;28;20049;-62
2023/05/28 01:08:59;;;;;;;9.45;4.55;;;;;;;9.59;87.82;97392.63;5001172;28;20493;-62
2023/05/28 01:11:26;;;;;;;11.40;5.30;;;;;;;9.59;87.37;97390.75;4997864;28;20112;-62
2023/05/28 01:13:54;;;;;;;11.50;5.47;;;;;;;9.66;86.95;97382.47;4998923;28;20136;-62
2023/05/28 01:16:21;;;;;;;10.93;5.28;;;;;;;9.70;86.84;97385.53;4982731;28;20034;-62
2023/05/28 01:18:48;;;;;;;13.90;4.85;;;;;;;9.53;87.38;97383.63;4998562;28;20057;-62
2023/05/28 01:21:16;;;;;;;8.50;4.43;;;;;;;9.36;88.75;97381.72;5000412;28;20092;-62
2023/05/28 01:23:47;;;;;;;9.27;4.32;;;;;;;9.42;88.19;97384.50;4995786;28;20042;-62
2023/05/28 01:26:15;;;;;;;10.60;5.20;;;;;;;9.48;87.54;97384.34;4996784;28;20587;-63
2023/05/28 01:28:46;;;;;;;10.70;4.63;;;;;;;9.55;87.07;97381.47;4993703;28;20045;-62
2023/05/28 01:31:14;;;;;;;10.38;4.88;;;;;;;9.47;87.76;97377.31;4989928;28;20341;-63
2023/05/28 01:33:42;;;;;;;11.40;5.10;;;;;;;9.44;88.34;97379.69;4998457;28;20042;-62
2023/05/28 01:36:24;;;;;;;7.80;4.32;;;;;;;9.37;88.72;97371.75;4998512;28;20587;-63
2023/05/28 01:38:52;;;;;;;10.20;4.95;;;;;;;9.25;88.83;97379.91;4995731;28;20165;-62
2023/05/28 01:41:20;;;;;;;10.90;4.97;;;;;;;9.24;88.84;97373.69;4991597;28;20192;-63
2023/05/28 01:43:47;;;;;;;12.07;5.03;;;;;;;9.28;88.69;97375.91;5005713;28;20141;-63
2023/05/28 01:46:14;;;;;;;17.05;5.10;;;;;;;9.41;87.85;97370.19;4996327;28;20677;-62
2023/05/28 01:48:41;;;;;;;10.80;5.13;;;;;;;9.46;87.44;97370.28;4990869;28;20041;-62
2023/05/28 01:51:10;;;;;;;10.32;4.68;;;;;;;9.43;87.31;97368.06;4990239;28;20086;-62
2023/05/28 01:53:36;;;;;;;8.32;4.53;;;;;;;9.15;88.87;97377.03;4992381;28;20057;-62
2023/05/28 01:56:03;;;;;;;15.10;5.55;;;;;;;8.98;90.06;97372.41;5015478;28;20133;-62
2023/05/28 01:58:30;;;;;;;9.88;4.55;;;;;;;8.80;91.61;97373.41;5000095;28;20030;-62
2023/05/28 02:01:11;;;;;;;8.38;4.55;;;;;;;8.83;91.50;97370.22;4986837;28;20042;-62
2023/05/28 02:03:38;;;;;;;13.10;5.13;;;;;;;8.85;91.17;97366.22;5000964;28;20459;-62
2023/05/28 02:06:05;;;;;;;7.70;4.25;;;;;;;8.82;91.97;97363.19;5002629;28;20053;-62
2023/05/28 02:08:31;;;;;;;14.55;5.32;;;;;;;8.80;91.42;97365.31;5000471;28;20108;-62
2023/05/28 02:10:59;;;;;;;9.43;4.28;;;;;;;8.67;92.36;97366.41;4997808;28;20042;-62
2023/05/28 02:13:27;;;;;;;16.83;5.38;;;;;;;8.57;92.93;97362.47;5005236;28;20673;-61
2023/05/28 02:15:55;;;;;;;13.55;6.18;;;;;;;8.56;92.93;97366.19;5000419;28;20050;-62
2023/05/28 02:18:22;;;;;;;11.07;5.10;;;;;;;8.52;93.45;97364.19;5000196;28;20148;-62
2023/05/28 02:20:50;;;;;;;10.70;4.78;;;;;;;8.45;93.36;97359.75;4996043;28;20042;-62
2023/05/28 02:23:16;;;;;;;11.27;4.90;;;;;;;8.39;94.16;97354.47;4990425;28;20585;-62
2023/05/28 02:25:45;;;;;;;11.80;4.65;;;;;;;8.35;93.96;97358.72;4997403;28;20516;-63
2023/05/28 02:28:12;;;;;;;9.90;4.75;;;;;;;8.34;94.38;97357.91;5001352;28;20140;-62
2023/05/28 02:30:39;;;;;;;11.88;5.18;;;;;;;8.23;94.20;97354.19;4989268;28;20169;-62
2023/05/28 02:33:06;;;;;;;10.80;4.72;;;;;;;8.04;96.75;97353.50;5004319;28;20462;-62
2023/05/28 02:35:33;;;;;;;10.10;4.47;;;;;;;7.98;96.76;97355.25;4996902;28;20529;-62
2023/05/28 02:37:59;;;;;;;9.43;4.55;;;;;;;7.93;96.94;97352.44;5000085;28;20046;-62
2023/05/28 02:40:26;;;;;;;10.93;3.92;;;;;;;7.86;97.35;97357.97;5003375;28;20043;-62
2023/05/28 02:42:53;;;;;;;10.48;4.80;;;;;;;7.89;96.96;97351.28;5002474;28;20073;-62
2023/05/28 02:45:19;;;;;;;8.95;4.13;;;;;;;7.63;98.03;97353.38;4999594;28;20042;-62
2023/05/28 02:47:46;;;;;;;7.47;3.97;;;;;;;7.51;99.68;97354.19;4999044;28;20065;-62
2023/05/28 02:50:12;;;;;;;12.18;5.07;;;;;;;7.49;99.80;97350.09;4991956;28;20066;-61
2023/05/28 02:52:52;;;;;;;6.90;3.85;;;;;;;7.39;100.00;97350.66;5001472;28;20042;-63
2023/05/28 02:55:19;;;;;;;8.40;4.55;;;;;;;7.49;100.00;97355.47;4997273;28;20073;-61
2023/05/28 02:57:46;;;;;;;10.40;4.40;;;;;;;7.53;100.00;97354.75;5000919;28;20642;-62
2023/05/28 03:00:13;;;;;;;9.23;4.57;;;;;;;7.52;99.86;97352.31;5002746;28;20068;-62
2023/05/28 03:02:40;;;;;;;11.52;4.40;;;;;;;7.55;99.85;97346.44;4996485;28;20077;-61
2023/05/28 03:05:07;;;;;;;10.55;4.53;;;;;;;7.60;99.26;97353.84;5004449;28;20046;-62
2023/05/28 03:07:34;;;;;;;11.63;4.13;;;;;;;7.77;98.52;97362.03;4995055;28;20096;-62
2023/05/28 03:10:01;;;;;;;14.93;4.20;;;;;;;7.57;98.66;97357.00;4996424;28;20579;-62
2023/05/28 03:12:32;;;;;;;9.32;3.80;;;;;;;7.46;99.94;97362.16;4990259;28;20066;-62
2023/05/28 03:14:58;;;;;;;14.52;4.70;;;;;;;7.29;99.96;97365.50;4997011;28;20508;-62
2023/05/28 03:17:25;;;;;;;10.75;4.70;;;;;;;7.26;100.00;97367.84;4995119;28;20069;-62
2023/05/28 03:19:51;;;;;;;11.93;4.22;;;;;;;7.39;100.00;97367.63;5003656;28;20064;-62
2023/05/28 03:22:20;;;;;;;10.00;3.95;;;;;;;7.22;100.00;97369.38;5001670;28;20045;-62
2023/05/28 03:24:47;;;;;;;10.02;4.40;;;;;;;6.94;100.00;97368.09;5002270;28;20077;-62
2023/05/28 03:27:16;;;;;;;8.73;4.30;;;;;;;6.98;100.00;97370.09;4995375;28;20049;-62
2023/05/28 03:29:43;;;;;;;9.10;4.03;;;;;;;7.00;100.00;97368.00;4989949;28;20046;-62
2023/05/28 03:32:17;;;;;;;10.38;4.72;;;;;;;6.90;100.00;97371.22;4993275;28;20590;-62
2023/05/28 03:34:43;;;;;;;6.90;4.25;;;;;;;6.62;100.00;97372.66;4990581;28;20473;-61
2023/05/28 03:37:10;;;;;;;9.27;4.45;;;;;;;6.62;100.00;97366.44;4997385;28;20528;-62
2023/05/28 03:39:39;;;;;;;11.73;4.38;;;;;;;6.71;100.00;97369.63;5004903;28;20042;-62
2023/05/28 03:42:07;;;;;;;9.57;3.95;;;;;;;6.70;100.00;97368.81;4999757;28;20834;-62
2023/05/28 03:44:34;;;;;;;9.57;4.30;;;;;;;6.74;100.00;97366.47;4996564;28;20363;-62
2023/05/28 03:47:02;;;;;;;7.25;3.60;;;;;;;6.78;100.00;97366.88;5000170;28;20046;-62
2023/05/28 03:49:29;;;;;;;11.70;3.78;;;;;;;6.90;100.00;97362.34;4997494;28;20108;-62
2023/05/28 03:51:56;;;;;;;9.07;3.90;;;;;;;6.84;100.00;97365.94;4991422;28;20042;-62
2023/05/28 03:54:25;;;;;;;9.65;4.80;;;;;;;6.92;100.00;97364.81;4996851;28;20053;-62
2023/05/28 03:56:51;;;;;;;9.07;4.75;;;;;;;7.10;100.00;97372.00;4997586;28;20080;-62
2023/05/28 03:59:19;;;;;;;12.98;4.15;;;;;;;7.10;100.00;97366.63;5008681;28;20038;-62
2023/05/28 04:01:47;;;;;;;10.15;4.65;;;;;;;7.19;100.00;97367.13;5000910;28;20132;-62
2023/05/28 04:04:13;;;;;;;8.38;3.38;;;;;;;7.27;100.00;97364.09;5000633;28;20643;-62
2023/05/28 04:06:40;;;;;;;10.88;4.60;;;;;;;7.47;100.00;97362.94;4994587;28;20061;-62
2023/05/28 04:09:07;;;;;;;8.70;4.00;;;;;;;7.57;99.77;97367.78;5001535;28;20060;-62
2023/05/28 04:11:34;;;;;;;10.77;4.50;;;;;;;7.72;99.20;97362.75;5001915;28;20042;-62
2023/05/28 04:14:01;;;;;;;9.48;4.20;;;;;;;7.67;98.78;97368.03;5001393;28;20049;-62
2023/05/28 04:16:28;;;;;;;11.15;4.32;;;;;;;7.76;98.11;97369.31;4998088;28;20042;-62
2023/05/28 04:18:55;;;;;;;9.00;4.18;;;;;;;7.70;98.30;97370.25;5001794;28;20390;-61
2023/05/28 04:21:22;;;;;;;8.75;4.07;;;;;;;7.66;98.92;97364.50;5002880;28;20516;-62
2023/05/28 04:23:48;;;;;;;9.55;4.43;;;;;;;7.68;98.65;97369.66;4995563;28;20092;-62
2023/05/28 04:26:16;;;;;;;8.82;4.05;;;;;;;7.84;97.91;97372.69;4998478;28;20042;-62
2023/05/28 04:28:42;;;;;;;9.60;4.43;;;;;;;8.02;96.91;97371.78;4998656;28;20033;-62
2023/05/28 04:31:09;;;;;;;13.48;4.43;;;;;;;7.98;97.52;97371.44;5000356;28;20061;-62
2023/05/28 04:33:36;;;;;;;11.30;4.60;;;;;;;8.07;96.47;97366.47;5000523;28;20042;-62
2023/05/28 04:36:03;;;;;;;7.10;4.07;;;;;;;8.05;96.90;97369.44;5001993;28;20072;-62
2023/05/28 04:38:33;;;;;;;10.13;4.75;;;;;;;8.13;97.02;97370.13;5001032;28;20042;-62
2023/05/28 04:41:00;;;;;;;8.23;4.43;;;;;;;8.15;97.53;97376.91;4994447;28;20150;-62
2023/05/28 04:43:29;;;;;;;7.57;4.47;;;;;;;8.16;97.77;97370.50;5002006;28;20048;-62
2023/05/28 04:45:58;;;;;;;10.32;4.38;;;;;;;8.39;96.69;97366.09;4994560;28;20095;-62
2023/05/28 04:48:25;;;;;;;11.68;4.05;;;;;;;8.45;96.04;97367.03;4991070;28;20599;-62
2023/05/28 04:50:53;;;;;;;6.75;4.03;;;;;;;8.61;95.12;97370.88;4991511;28;20416;-62
2023/05/28 04:53:20;;;;;;;14.13;4.38;;;;;;;8.70;95.15;97372.16;4990113;28;20054;-62
2023/05/28 04:55:47;;;;;;;9.82;4.50;;;;;;;8.89;94.56;97381.94;4992779;28;20058;-62
2023/05/28 04:58:14;;;;;;;9.57;4.45;;;;;;;8.93;95.09;97378.53;4995221;28;20057;-62
2023/05/28 05:00:40;;;;;;;10.75;4.50;;;;;;;9.06;94.61;97382.81;4989264;28;20651;-62
2023/05/28 05:03:08;;;;;;;9.02;4.10;;;;;;;9.25;94.32;97379.91;4996648;28;20057;-63
2023/05/28 05:05:35;;;;;;;9.32;4.03;;;;;;;9.31;93.97;97380.81;4990687;28;20054;-62
2023/05/28 05:08:01;;;;;;;7.25;4.15;;;;;;;9.50;93.53;97387.63;4995868;28;20421;-62
2023/05/28 05:10:28;;;;;;;9.70;4.43;;;;;;;9.64;93.41;97376.50;4993496;28;20501;-62
2023/05/28 05:12:55;;;;;;;10.48;4.72;;;;;;;9.81;92.75;97381.09;4998109;28;20096;-63
2023/05/28 05:15:21;;;;;;;;;;;;;;;9.88;92.41;97379.84;4994764;28;20050;-62
2023/05/28 05:17:48;;;;;;;;;;;;;;;9.92;91.49;97373.94;4992981;28;19929;-62
2023/05/28 05:20:14;;;;;;;;;;;;;;;10.02;90.97;97374.91;4991971;28;20108;-62
2023/05/28 05:22:41;;;;;;;;;;;;;;;10.16;91.01;97377.25;5008989;28;19925;-62
2023/05/28 05:25:07;;;;;;;8.38;3.85;;;;;;;10.36;91.63;97378.63;4985811;28;20574;-63
2023/05/28 05:27:36;;;;;;;11.05;4.30;;;;;;;10.50;91.52;97379.91;4991897;28;20049;-62
2023/05/28 05:30:05;;;;;;;8.48;4.03;;;;;;;10.62;90.36;97378.97;4992537;28;20137;-63
2023/05/28 05:32:32;;;;;;;8.82;4.45;;;;;;;10.76;90.13;97363.97;4997059;28;20042;-62
2023/05/28 05:34:58;;;;;;;11.32;4.20;;;;;;;10.95;90.04;97371.78;4993041;28;20513;-62
2023/05/28 05:37:25;;;;;;;12.30;4.88;;;;;;;11.08;90.43;97367.84;4994957;28;20088;-62
2023/05/28 05:40:27;;;;;;;9.38;4.05;;;;;;;11.27;89.50;97371.00;4997912;28;20790;-62
2023/05/28 05:43:14;;;;;;;9.98;4.68;;;;;;;11.51;87.52;97370.69;4998950;28;20271;-62
2023/05/28 05:45:41;;;;;;;11.98;4.63;;;;;;;11.66;86.85;97367.28;4998059;28;20130;-62
2023/05/28 05:48:09;;;;;;;7.68;4.10;;;;;;;11.73;87.04;97377.09;5003126;28;20038;-62
2023/05/28 05:50:55;;;;;;;9.93;4.15;;;;;;;11.90;86.33;97372.31;5004494;28;20038;-62
2023/05/28 05:53:23;;;;;;;12.07;4.22;;;;;;;12.02;82.20;97374.03;5005952;28;20038;-62
2023/05/28 05:55:50;;;;;;;11.48;3.92;;;;;;;12.15;78.07;97370.06;4999805;28;20545;-62
2023/05/28 05:58:17;;;;;;;6.80;3.42;;;;;;;12.31;77.37;97371.78;5000219;28;20037;-62
2023/05/28 06:00:45;;;;;;;9.05;3.72;;;;;;;12.45;77.03;97371.31;5005837;28;20050;-62
2023/05/28 06:03:12;;;;;;;5.28;3.17;;;;;;;12.56;77.69;97373.00;5007680;28;20066;-63
2023/05/28 06:05:57;;;;;;;7.93;3.50;;;;;;;12.74;76.60;97376.34;5007212;28;20053;-62
2023/05/28 06:08:48;;;;;;;11.13;3.55;;;;;;;12.92;70.32;97375.03;5006821;28;20137;-63
2023/05/28 06:11:23;;;;;;;10.80;4.55;;;;;;;13.34;65.35;97375.94;5000445;28;20061;-62
2023/05/28 06:13:50;;;;;;;9.00;3.65;;;;;;;13.59;62.84;97377.09;5001075;28;20074;-63
2023/05/28 06:16:17;;;;;;;8.57;4.38;;;;;;;13.81;61.66;97378.72;5006312;28;20096;-63
2023/05/28 06:18:44;;;;;;;10.57;4.10;;;;;;;13.93;60.38;97372.19;4999660;28;20112;-63
2023/05/28 06:21:11;;;;;;;9.20;3.92;;;;;;;14.01;60.44;97380.59;4998540;28;20505;-63
2023/05/28 06:23:37;;;;;;;7.78;3.33;;;;;;;14.11;60.35;97376.25;5001549;28;20057;-63
2023/05/28 06:26:05;;;;;;;10.00;4.15;;;;;;;14.18;60.15;97379.47;5005498;28;20045;-62
2023/05/28 06:28:31;;;;;;;10.55;3.75;;;;;;;14.28;60.65;97381.38;4995279;28;20073;-62
2023/05/28 06:30:58;;;;;;;8.63;4.18;;;;;;;14.33;60.44;97383.28;4993171;28;20038;-63
2023/05/28 06:33:25;;;;;;;7.30;4.10;;;;;;;14.40;60.92;97379.16;4997736;28;20092;-63
2023/05/28 06:35:52;;;;;;;8.77;3.92;;;;;;;14.42;60.98;97376.97;5007150;28;20069;-63
2023/05/28 06:38:19;;;;;;;6.53;3.28;;;;;;;14.51;60.81;97381.84;5004928;28;20435;-63
2023/05/28 06:40:46;;;;;;;7.60;4.13;;;;;;;14.60;60.57;97385.66;5003878;28;20128;-62
2023/05/28 06:43:12;;;;;;;7.43;3.88;;;;;;;14.62;59.89;97378.00;5003047;28;20431;-63
2023/05/28 06:45:57;;;;;;;11.73;3.78;;;;;;;14.76;59.93;97386.44;5005790;28;20046;-63
2023/05/28 06:48:23;;;;;;;7.90;3.70;;;;;;;14.81;59.70;97385.56;5002629;28;20136;-62
2023/05/28 06:50:50;;;;;;;9.55;3.70;;;;;;;14.91;59.69;97388.28;5001948;28;20421;-63
2023/05/28 06:53:17;;;;;;;10.10;3.53;;;;;;;15.02;61.18;97380.84;5015520;28;20452;-62
2023/05/28 06:55:44;;;;;;;7.70;3.40;;;;;;;15.07;59.87;97380.00;5000346;28;20046;-62
2023/05/28 06:58:22;;;;;;;12.40;3.65;;;;;;;15.12;59.90;97382.72;4993405;28;20133;-62
2023/05/28 07:01:07;;;;;;;11.70;3.88;;;;;;;15.21;60.42;97381.03;4976281;28;20044;-47
2023/05/28 07:03:48;;;;;;;11.23;4.03;;;;;;;15.34;59.90;97384.22;4998427;28;20185;-47
2023/05/28 07:06:19;;;;;;;11.60;3.87;;;;;;;15.40;59.73;97393.19;4995270;28;20049;-45
2023/05/28 07:08:46;;;;;;;9.45;3.47;;;;;;;15.47;59.59;97394.50;4996783;28;20042;-45
2023/05/28 07:11:14;;;;;;;9.00;3.60;;;;;;;15.60;59.12;97392.22;4964985;28;20049;-46
2023/05/28 07:13:45;;;;;;;11.68;4.18;;;;;;;15.74;58.45;97390.47;4980604;28;20172;-48
2023/05/28 07:16:11;;;;;;;9.95;4.00;;;;;;;15.75;58.16;97396.75;5001210;28;20049;-46
2023/05/28 07:18:39;;;;;;;9.30;3.80;;;;;;;15.80;58.21;97390.41;4999591;28;20217;-49
2023/05/28 07:21:05;;;;;;;7.80;3.67;;;;;;;15.88;57.96;97392.53;4998471;28;20034;-47
2023/05/28 07:23:37;;;;;;;10.70;3.75;;;;;;;15.95;57.88;97400.41;4991416;28;20050;-49
2023/05/28 07:26:05;;;;;;;7.13;3.85;;;;;;;16.08;59.23;97396.22;4992363;28;20046;-49
2023/05/28 07:28:31;;;;;;;11.00;4.03;;;;;;;16.03;58.90;97396.28;4995858;28;20058;-46
2023/05/28 07:30:58;;;;;;;8.77;3.92;;;;;;;16.11;59.29;97396.44;4994077;28;20041;-50
2023/05/28 07:33:24;;;;;;;9.70;4.05;;;;;;;16.06;58.52;97399.25;4989361;28;20134;-46
2023/05/28 07:35:52;;;;;;;10.00;3.95;;;;;;;16.24;57.67;97399.63;4958886;28;20061;-47
2023/05/28 07:38:18;;;;;;;9.77;3.40;;;;;;;16.19;56.96;97396.94;4990128;28;20050;-45
2023/05/28 07:40:50;;;;;;;9.52;4.65;;;;;;;16.31;58.18;97402.84;4996780;28;20041;-49
2023/05/28 07:43:30;;;;;;;8.13;3.55;;;;;;;16.33;57.66;97400.59;4989135;28;20045;-45
2023/05/28 07:46:02;;;;;;;12.32;3.58;;;;;;;16.51;57.86;97404.53;4994475;28;20045;-49
2023/05/28 07:48:36;;;;;;;9.25;3.80;;;;;;;16.53;57.42;97406.97;4990149;28;20119;-44
2023/05/28 07:51:17;;;;;;;12.00;4.68;;;;;;;16.52;56.18;97405.34;5000722;28;20182;-47
2023/05/28 07:53:48;;;;;;;8.95;3.80;;;;;;;16.48;57.73;97398.84;4998479;28;20140;-47
2023/05/28 07:56:20;;;;;;;9.02;3.88;;;;;;;16.48;56.74;97398.84;4993849;28;20045;-46
2023/05/28 07:58:47;;;;;;;8.30;4.15;;;;;;;16.51;56.39;97399.06;4997517;28;20057;-49
2023/05/28 08:01:16;;;;;;;6.75;3.60;;;;;;;16.66;57.84;97404.66;5000850;28;20038;-49
2023/05/28 08:03:43;;;;;;;9.63;3.50;;;;;;;16.84;57.02;97403.88;5001353;28;20045;-49
2023/05/28 08:06:11;;;;;;;9.70;4.15;;;;;;;16.95;57.10;97404.56;4970917;28;20050;-46
2023/05/28 08:08:38;;;;;;;8.52;3.63;;;;;;;17.15;56.48;97400.75;4991292;28;20066;-46
2023/05/28 08:11:06;;;;;;;8.38;4.15;;;;;;;17.26;56.29;97401.47;4999589;28;20096;-48
2023/05/28 08:13:33;;;;;;;8.32;3.65;;;;;;;17.36;55.01;97394.22;5002124;28;20065;-48
2023/05/28 08:16:03;;;;;;;10.98;4.72;;;;;;;17.41;54.91;97399.59;5002451;28;20523;-48
2023/05/28 08:18:47;;;;;;;8.18;4.05;;;;;;;17.19;55.64;97394.72;4997947;28;20062;-49
2023/05/28 08:21:13;;;;;;;9.65;4.05;;;;;;;17.44;57.25;97392.72;4998784;28;20034;-47
2023/05/28 08:23:41;;;;;;;7.82;3.72;;;;;;;17.59;55.59;97391.69;4996826;28;20050;-47
2023/05/28 08:26:08;;;;;;;8.85;4.28;;;;;;;17.71;56.63;97385.72;4999570;28;20065;-48
2023/05/28 08:28:35;;;;;;;10.73;4.68;;;;;;;17.84;54.88;97389.66;4999396;28;20604;-44
2023/05/28 08:31:03;;;;;;;9.82;3.63;;;;;;;17.97;54.58;97385.31;4995501;28;20845;-48
2023/05/28 08:33:53;;;;;;;12.15;5.03;;;;;;;17.69;54.47;97386.03;4991503;28;20057;-47
2023/05/28 08:36:20;;;;;;;8.65;3.80;;;;;;;17.76;53.87;97388.41;4996228;28;20674;-46
2023/05/28 08:38:49;;;;;;;12.45;5.47;;;;;;;17.80;55.39;97384.75;4999184;28;20049;-46
2023/05/28 08:41:19;;;;;;;8.63;3.63;;;;;;;18.06;55.19;97384.31;4991216;28;20052;-47
2023/05/28 08:43:45;;;;;;;8.52;4.43;;;;;;;18.16;53.37;97374.31;4991888;28;20089;-46
2023/05/28 08:46:12;;;;;;;11.10;3.95;;;;;;;18.40;54.49;97376.91;4994557;28;20033;-45
2023/05/28 08:48:58;;;;;;;9.38;3.33;;;;;;;18.51;53.45;97374.78;4997827;28;21075;-45
2023/05/28 08:51:27;;;;;;;9.55;4.05;;;;;;;18.61;53.12;97368.25;4988494;28;20522;-47
2023/05/28 08:53:55;;;;;;;8.55;3.70;;;;;;;18.78;52.67;97362.16;4990023;28;20042;-46
2023/05/28 08:56:28;;;;;;;6.75;3.33;;;;;;;18.78;51.37;97364.91;4991635;28;20065;-46
2023/05/28 08:58:55;;;;;;;10.43;3.97;;;;;;;18.68;51.85;97365.09;4996308;28;20057;-44
2023/05/28 09:01:22;;;;;;;8.60;3.38;;;;;;;18.78;52.47;97359.44;4992377;28;20136;-46
2023/05/28 09:04:04;;;;;;;10.73;3.42;;;;;;;19.04;52.23;97364.38;4990848;28;20504;-48
2023/05/28 09:06:38;;;;;;;11.77;3.97;;;;;;;19.19;50.58;97365.16;4996344;28;20683;-52
2023/05/28 09:09:10;;;;;;;8.63;3.65;;;;;;;19.08;51.15;97365.41;4997941;28;20106;-46
2023/05/28 09:11:42;;;;;;;8.15;3.30;;;;;;;18.94;51.51;97354.41;4992041;28;20074;-47
2023/05/28 09:14:11;;;;;;;8.73;3.97;;;;;;;19.00;51.88;97365.28;4997875;28;20042;-49
2023/05/28 09:16:42;;;;;;;10.60;3.72;;;;;;;19.14;51.32;97354.31;4989660;28;20136;-46
2023/05/28 09:19:17;;;;;;;10.88;3.85;;;;;;;19.23;49.08;97360.69;4988367;28;20304;-50
2023/05/28 09:21:55;;;;;;;10.50;3.53;;;;;;;19.21;48.49;97352.75;4982182;28;20092;-51
2023/05/28 09:24:25;;;;;;;10.60;3.70;;;;;;;19.34;49.66;97353.03;4990268;28;20590;-52
2023/05/28 09:27:11;;;;;;;9.80;3.40;;;;;;;19.44;49.71;97349.22;4996142;28;20056;-51
2023/05/28 09:29:39;;;;;;;10.10;3.53;;;;;;;19.40;48.09;97351.78;4992600;28;20046;-48
2023/05/28 09:32:05;;;;;;;11.60;3.53;;;;;;;19.51;48.14;97352.38;4998291;28;20708;-48
2023/05/28 09:34:33;;;;;;;7.75;3.50;;;;;;;19.75;47.92;97349.28;4977676;28;21540;-48
2023/05/28 09:37:00;;;;;;;9.18;3.40;;;;;;;19.85;47.21;97350.97;4989578;28;20052;-44
2023/05/28 09:39:27;;;;;;;8.25;3.40;;;;;;;19.92;48.45;97344.22;4989434;28;20045;-46
2023/05/28 09:42:09;;;;;;;5.28;2.95;;;;;;;20.06;46.80;97344.16;4995724;28;20045;-47
2023/05/28 09:44:39;;;;;;;9.45;3.90;;;;;;;19.94;46.48;97342.78;4983029;28;20125;-48
2023/05/28 09:47:16;;;;;;;8.45;3.60;;;;;;;20.07;46.21;97349.34;4970736;28;20050;-47
2023/05/28 09:49:47;;;;;;;7.43;3.30;;;;;;;20.10;45.46;97345.16;4992411;28;20042;-48
2023/05/28 09:52:21;;;;;;;8.95;3.28;;;;;;;19.96;45.02;97343.28;4999128;28;20121;-50
2023/05/28 09:54:51;;;;;;;7.57;3.05;;;;;;;19.98;46.01;97342.97;4997473;28;20050;-52
2023/05/28 09:57:27;;;;;;;9.18;3.97;;;;;;;20.03;46.34;97340.13;4994397;28;20041;-48
2023/05/28 09:59:55;;;;;;;8.55;3.00;;;;;;;20.00;44.38;97348.97;4995565;28;20046;-49
2023/05/28 10:02:41;;;;;;;8.07;2.97;;;;;;;20.02;45.00;97339.28;4997950;28;20046;-50
2023/05/28 10:05:10;;;;;;;8.23;3.75;;;;;;;20.36;45.41;97345.28;4996573;28;20052;-46
2023/05/28 10:07:40;;;;;;;9.60;3.70;;;;;;;20.58;45.98;97343.59;4990245;28;20034;-50
2023/05/28 10:10:10;;;;;;;9.30;3.65;;;;;;;20.42;43.89;97345.13;4994881;28;20518;-52
2023/05/28 10:12:38;;;;;;;8.68;3.63;;;;;;;20.26;43.55;97342.81;4990684;28;20057;-45
2023/05/28 10:15:07;;;;;;;9.38;3.65;;;;;;;20.34;43.36;97341.25;4993963;28;20440;-51
2023/05/28 10:17:35;;;;;;;14.38;4.00;;;;;;;20.54;44.80;97339.84;4995390;28;20520;-46
2023/05/28 10:20:04;;;;;;;9.40;3.47;;;;;;;20.53;43.27;97341.78;4990202;28;20038;-50
2023/05/28 10:22:32;;;;;;;8.35;3.33;;;;;;;20.66;45.09;97350.22;4992052;28;20529;-47
2023/05/28 10:25:00;;;;;;;10.60;3.30;;;;;;;20.77;43.07;97339.75;4994987;28;20100;-45
2023/05/28 10:27:33;;;;;;;6.75;3.15;;;;;;;20.65;44.51;97341.16;4997672;28;20077;-46
2023/05/28 10:30:03;;;;;;;9.65;3.03;;;;;;;20.89;44.99;97350.16;4996504;28;20052;-46
2023/05/28 10:32:38;;;;;;;11.02;4.00;;;;;;;20.73;45.51;97344.25;4994805;28;20053;-46
2023/05/28 10:35:05;;;;;;;7.88;3.65;;;;;;;20.62;44.60;97338.25;4993591;28;20042;-48
2023/05/28 10:37:31;;;;;;;10.30;3.70;;;;;;;20.94;45.24;97346.44;4964798;28;20054;-45
2023/05/28 10:39:59;;;;;;;12.18;3.10;;;;;;;21.19;44.09;97344.84;4973178;28;20423;-48
2023/05/28 10:42:26;;;;;;;7.97;3.47;;;;;;;21.09;43.43;97339.66;4973630;28;20056;-50
2023/05/28 10:45:06;;;;;;;10.13;4.45;;;;;;;21.19;43.72;97342.09;4990818;28;20060;-49
2023/05/28 10:47:34;;;;;;;7.87;3.43;;;;;;;21.42;42.19;97352.97;4997839;28;20046;-50
2023/05/28 10:50:14;;;;;;;8.27;3.42;;;;;;;21.41;41.62;97349.41;4993991;28;20057;-47
2023/05/28 10:53:07;;;;;;;10.48;2.85;;;;;;;21.07;40.48;97347.44;4997302;28;20099;-51
2023/05/28 10:55:53;;;;;;;8.40;3.72;;;;;;;21.15;41.88;97341.94;4996387;28;20050;-50
2023/05/28 10:58:28;;;;;;;8.70;3.35;;;;;;;21.25;41.66;97337.25;4997600;28;20056;-48
2023/05/28 11:01:18;;;;;;;8.50;3.25;;;;;;;21.29;40.58;97333.53;4994391;28;20073;-50
2023/05/28 11:03:53;;;;;;;9.55;3.80;;;;;;;21.31;38.68;97336.75;4995337;28;20141;-51
2023/05/28 11:06:20;;;;;;;9.38;2.88;;;;;;;21.54;38.04;97328.34;5003225;28;20073;-46
2023/05/28 11:08:48;;;;;;;6.60;3.28;;;;;;;21.51;37.91;97334.50;4992055;28;20528;-47
2023/05/28 11:11:16;;;;;;;6.22;3.13;;;;;;;21.50;39.61;97323.78;5000378;28;20056;-48
2023/05/28 11:13:46;;;;;;;9.45;3.20;;;;;;;21.75;38.84;97332.38;4997037;28;20077;-45
2023/05/28 11:16:15;;;;;;;14.32;4.00;;;;;;;21.65;37.48;97337.06;5001017;28;20042;-46
2023/05/28 11:19:01;;;;;;;7.45;3.47;;;;;;;21.90;36.67;97326.38;5004124;28;21224;-45
2023/05/28 11:21:28;;;;;;;8.60;4.20;;;;;;;21.94;38.24;97332.84;4996244;28;20076;-49
2023/05/28 11:24:00;;;;;;;7.47;3.42;;;;;;;22.05;37.00;97321.44;4997284;28;20074;-53
2023/05/28 11:26:27;;;;;;;7.50;2.88;;;;;;;22.19;37.71;97324.78;4996136;28;20050;-52
2023/05/28 11:28:54;;;;;;;8.45;2.83;;;;;;;22.37;40.12;97319.19;4998774;28;20053;-58
2023/05/28 11:31:21;;;;;;;7.35;3.13;;;;;;;22.52;38.10;97319.81;5000227;28;20045;-54
2023/05/28 11:33:50;;;;;;;5.55;2.72;;;;;;;22.63;37.54;97321.09;4990997;28;20045;-57
2023/05/28 11:36:19;;;;;;;9.07;2.97;;;;;;;22.74;37.71;97322.28;5001723;28;20052;-56
2023/05/28 11:38:46;;;;;;;7.03;2.85;;;;;;;22.61;39.89;97320.59;4988678;28;20137;-56
2023/05/28 11:41:13;;;;;;;8.52;3.55;;;;;;;22.55;40.35;97314.44;4992062;28;20070;-53
2023/05/28 11:43:39;;;;;;;7.65;3.85;;;;;;;22.30;40.44;97322.47;4995984;28;20048;-54
2023/05/28 11:46:06;;;;;;;7.28;2.85;;;;;;;22.35;40.39;97322.31;4980193;28;20338;-53